Time;durP1;ratioP1;P1;durP2;ratioP2;P2;SDS_P1;SDS_P2;PMS_P1;PMS_P2;Temp;Humidity;BMP_temperature;BMP_pressure;BME280_temperature;BME280_humidity;BME280_pressure;Samples;Min_cycle;Max_cycle;Signal;HPM_P1;HPM_P2
2022/04/20 00:01:43;;;;;;;6.75;4.15;;;;;;;;;;5004323;28;20056;-74
2022/04/20 00:04:10;;;;;;;6.97;4.10;;;;;;;;;;5005469;28;20038;-74
2022/04/20 00:06:37;;;;;;;7.72;4.60;;;;;;;;;;5005502;28;20032;-75
2022/04/20 00:09:03;;;;;;;6.80;3.85;;;;;;;;;;5005472;28;20041;-74
2022/04/20 00:11:30;;;;;;;7.00;3.88;;;;;;;;;;5003500;28;20033;-75
2022/04/20 00:13:56;;;;;;;8.13;3.67;;;;;;;;;;5005184;28;20570;-75
2022/04/20 00:16:22;;;;;;;7.25;3.58;;;;;;;;;;5005571;28;20064;-74
2022/04/20 00:18:48;;;;;;;4.43;3.25;;;;;;;;;;5005405;28;20065;-74
2022/04/20 00:21:14;;;;;;;6.30;3.83;;;;;;;;;;5003603;28;20022;-74
2022/04/20 00:23:40;;;;;;;8.30;4.00;;;;;;;;;;5004944;28;20048;-75
2022/04/20 00:26:06;;;;;;;4.50;3.65;;;;;;;;;;5005278;28;20084;-74
2022/04/20 00:28:33;;;;;;;7.75;3.90;;;;;;;;;;5004340;28;20034;-74
2022/04/20 00:30:59;;;;;;;6.13;3.97;;;;;;;;;;5021345;28;20033;-74
2022/04/20 00:33:25;;;;;;;5.50;3.28;;;;;;;;;;5024480;28;20041;-74
2022/04/20 00:35:51;;;;;;;3.92;3.20;;;;;;;;;;5005059;28;20905;-74
2022/04/20 00:38:18;;;;;;;6.47;3.47;;;;;;;;;;5004934;28;20048;-74
2022/04/20 00:40:50;;;;;;;4.80;3.40;;;;;;;;;;5005374;28;20029;-74
2022/04/20 00:43:17;;;;;;;5.88;3.75;;;;;;;;;;5003446;28;20041;-74
2022/04/20 00:45:44;;;;;;;6.30;3.22;;;;;;;;;;5004895;28;20026;-75
2022/04/20 00:48:13;;;;;;;4.72;3.65;;;;;;;;;;5004964;28;20084;-74
2022/04/20 00:50:40;;;;;;;8.13;3.58;;;;;;;;;;5004794;28;20032;-74
2022/04/20 00:53:06;;;;;;;7.70;3.92;;;;;;;;;;5003529;28;20072;-75
2022/04/20 00:55:32;;;;;;;3.95;3.53;;;;;;;;;;5004941;28;20092;-75
2022/04/20 00:57:58;;;;;;;5.65;3.72;;;;;;;;;;5005016;28;20026;-74
2022/04/20 01:00:27;;;;;;;7.40;3.58;;;;;;;;;;5004612;28;20030;-74
2022/04/20 01:02:53;;;;;;;3.90;2.95;;;;;;;;;;5004533;28;20030;-74
2022/04/20 01:05:21;;;;;;;8.65;3.47;;;;;;;;;;5006917;28;20363;-74
2022/04/20 01:07:48;;;;;;;4.55;3.33;;;;;;;;;;5008573;28;20359;-74
2022/04/20 01:10:14;;;;;;;5.63;3.35;;;;;;;;;;5014023;28;20133;-77
2022/04/20 01:12:44;;;;;;;5.18;3.25;;;;;;;;;;5008671;28;20040;-74
2022/04/20 01:15:12;;;;;;;11.30;3.35;;;;;;;;;;5006912;28;20032;-74
2022/04/20 01:17:38;;;;;;;5.07;3.30;;;;;;;;;;5008635;28;20710;-74
2022/04/20 01:20:05;;;;;;;6.28;3.70;;;;;;;;;;5020724;28;20041;-74
2022/04/20 01:22:31;;;;;;;4.97;3.10;;;;;;;;;;5026917;28;20017;-76
2022/04/20 01:24:57;;;;;;;4.63;3.08;;;;;;;;;;5028099;28;20045;-74
2022/04/20 01:27:24;;;;;;;4.15;3.15;;;;;;;;;;5008632;28;20461;-74
2022/04/20 01:29:50;;;;;;;5.10;3.20;;;;;;;;;;5008233;28;20032;-74
2022/04/20 01:32:16;;;;;;;5.70;3.78;;;;;;;;;;5006906;28;20018;-74
2022/04/20 01:34:42;;;;;;;8.02;3.53;;;;;;;;;;5008256;28;20033;-74
2022/04/20 01:37:09;;;;;;;6.57;3.35;;;;;;;;;;5007009;28;20018;-74
2022/04/20 01:39:35;;;;;;;7.70;3.20;;;;;;;;;;5010495;28;20124;-74
2022/04/20 01:42:01;;;;;;;5.57;3.00;;;;;;;;;;5006744;28;20106;-74
2022/04/20 01:44:27;;;;;;;6.60;3.58;;;;;;;;;;5008412;28;20474;-74
2022/04/20 01:46:53;;;;;;;4.80;3.10;;;;;;;;;;5012094;28;20076;-75
2022/04/20 01:49:19;;;;;;;8.05;3.20;;;;;;;;;;5027928;28;20071;-74
2022/04/20 01:51:52;;;;;;;5.10;2.80;;;;;;;;;;5027876;28;20028;-74
2022/04/20 01:54:21;;;;;;;4.18;3.00;;;;;;;;;;5018762;28;20603;-74
2022/04/20 01:56:48;;;;;;;3.40;2.78;;;;;;;;;;5007828;28;20025;-74
2022/04/20 01:59:14;;;;;;;5.18;2.85;;;;;;;;;;5008350;28;20028;-74
2022/04/20 02:04:26;;;;;;;4.72;2.95;;;;;;;;;;5000822;28;20052;-74
2022/04/20 02:06:52;;;;;;;5.03;3.33;;;;;;;;;;5003089;28;20053;-75
2022/04/20 02:09:18;;;;;;;4.93;3.30;;;;;;;;;;5007865;28;20069;-74
2022/04/20 02:11:45;;;;;;;8.50;3.40;;;;;;;;;;5042218;28;20567;-74
2022/04/20 02:14:11;;;;;;;6.63;3.33;;;;;;;;;;5040644;28;20028;-75
2022/04/20 02:16:37;;;;;;;6.28;2.83;;;;;;;;;;5041116;28;20049;-74
2022/04/20 02:19:03;;;;;;;4.72;2.95;;;;;;;;;;5042526;28;20512;-77
2022/04/20 02:21:29;;;;;;;4.70;3.03;;;;;;;;;;5042312;28;20071;-74
2022/04/20 02:23:56;;;;;;;5.13;3.38;;;;;;;;;;5021974;28;20049;-76
2022/04/20 02:26:22;;;;;;;5.47;3.10;;;;;;;;;;5002960;28;20046;-74
2022/04/20 02:28:48;;;;;;;3.75;3.03;;;;;;;;;;5002370;28;20406;-74
2022/04/20 02:31:14;;;;;;;4.22;2.90;;;;;;;;;;5002411;28;20037;-74
2022/04/20 02:33:41;;;;;;;4.97;3.10;;;;;;;;;;5001155;28;20627;-74
2022/04/20 02:36:07;;;;;;;5.05;3.20;;;;;;;;;;5002338;28;20029;-75
2022/04/20 02:38:35;;;;;;;6.45;3.15;;;;;;;;;;5002533;28;20025;-74
2022/04/20 02:41:01;;;;;;;6.50;3.00;;;;;;;;;;5017434;28;20039;-75
2022/04/20 02:43:28;;;;;;;6.00;3.05;;;;;;;;;;5013717;28;20474;-74
2022/04/20 02:45:56;;;;;;;4.65;2.95;;;;;;;;;;5001527;28;20168;-75
2022/04/20 02:48:22;;;;;;;4.82;3.00;;;;;;;;;;5002409;28;20026;-74
2022/04/20 02:50:48;;;;;;;5.13;3.03;;;;;;;;;;5001903;28;20087;-74
2022/04/20 02:53:15;;;;;;;6.53;3.25;;;;;;;;;;5000219;28;20026;-75
2022/04/20 02:55:42;;;;;;;4.68;3.20;;;;;;;;;;5002262;28;20111;-74
2022/04/20 02:58:08;;;;;;;5.93;3.08;;;;;;;;;;5002491;28;20041;-74
2022/04/20 03:00:35;;;;;;;6.43;3.20;;;;;;;;;;5001796;28;20569;-75
2022/04/20 03:03:01;;;;;;;4.32;2.97;;;;;;;;;;5019192;28;20029;-74
2022/04/20 03:05:27;;;;;;;4.35;2.92;;;;;;;;;;5021956;28;20037;-75
2022/04/20 03:07:53;;;;;;;3.95;3.10;;;;;;;;;;5021915;28;20043;-74
2022/04/20 03:10:19;;;;;;;7.45;3.42;;;;;;;;;;5014838;28;20030;-74
2022/04/20 03:12:45;;;;;;;5.70;3.15;;;;;;;;;;5014220;28;20029;-74
2022/04/20 03:15:11;;;;;;;3.63;2.58;;;;;;;;;;5020109;28;20026;-74
2022/04/20 03:17:38;;;;;;;5.88;3.30;;;;;;;;;;5001768;28;20079;-75
2022/04/20 03:20:04;;;;;;;5.80;3.25;;;;;;;;;;5002053;28;20422;-74
2022/04/20 03:22:30;;;;;;;5.70;2.90;;;;;;;;;;5000160;28;20040;-74
2022/04/20 03:24:56;;;;;;;5.20;3.40;;;;;;;;;;5003934;28;20095;-74
2022/04/20 03:27:22;;;;;;;6.05;3.63;;;;;;;;;;5000837;28;20026;-74
2022/04/20 03:29:48;;;;;;;5.30;2.90;;;;;;;;;;5018939;28;20049;-74
2022/04/20 03:32:15;;;;;;;5.88;3.20;;;;;;;;;;5007106;28;20036;-74
2022/04/20 03:34:42;;;;;;;4.95;3.10;;;;;;;;;;5006964;28;20026;-74
2022/04/20 03:37:09;;;;;;;7.10;2.80;;;;;;;;;;5020752;28;20036;-75
2022/04/20 03:39:36;;;;;;;5.95;3.08;;;;;;;;;;5019337;28;20029;-75
2022/04/20 03:42:03;;;;;;;5.28;3.47;;;;;;;;;;5019131;28;20044;-74
2022/04/20 03:44:30;;;;;;;5.47;3.13;;;;;;;;;;5018632;28;20355;-74
2022/04/20 03:46:56;;;;;;;5.15;2.80;;;;;;;;;;5020871;28;20537;-75
2022/04/20 03:49:22;;;;;;;3.45;3.05;;;;;;;;;;5020915;28;20044;-74
2022/04/20 03:51:48;;;;;;;5.03;3.13;;;;;;;;;;5020585;28;20857;-75
2022/04/20 03:54:15;;;;;;;3.55;3.08;;;;;;;;;;5019513;28;20029;-74
2022/04/20 03:59:27;;;;;;;6.25;2.97;;;;;;;;;;5018214;28;20108;-74
2022/04/20 04:01:53;;;;;;;4.93;2.90;;;;;;;;;;5012722;28;20037;-74
2022/04/20 04:04:20;;;;;;;4.95;3.33;;;;;;;;;;5020762;28;20091;-75
2022/04/20 04:06:46;;;;;;;6.78;3.13;;;;;;;;;;5020563;28;20021;-73
2022/04/20 04:09:12;;;;;;;6.15;2.70;;;;;;;;;;4999932;28;20072;-74
2022/04/20 04:11:39;;;;;;;4.43;3.15;;;;;;;;;;5000576;28;20041;-74
2022/04/20 04:14:05;;;;;;;6.63;2.95;;;;;;;;;;5001167;28;20026;-74
2022/04/20 04:16:36;;;;;;;6.88;3.03;;;;;;;;;;5000988;28;20119;-74
2022/04/20 04:19:03;;;;;;;3.23;2.90;;;;;;;;;;4998889;28;20080;-74
2022/04/20 04:21:30;;;;;;;8.40;3.20;;;;;;;;;;5000720;28;20037;-74
2022/04/20 04:23:56;;;;;;;6.43;3.03;;;;;;;;;;5000595;28;20042;-74
2022/04/20 04:26:22;;;;;;;5.60;3.45;;;;;;;;;;5016513;28;20025;-74
2022/04/20 04:28:48;;;;;;;3.47;2.83;;;;;;;;;;5038085;28;20404;-74
2022/04/20 04:31:14;;;;;;;3.05;2.75;;;;;;;;;;5003366;28;20106;-74
2022/04/20 04:33:40;;;;;;;5.93;3.00;;;;;;;;;;5001408;28;20040;-73
2022/04/20 04:36:07;;;;;;;6.68;3.13;;;;;;;;;;5000622;28;20025;-74
2022/04/20 04:38:33;;;;;;;5.70;2.85;;;;;;;;;;5004841;28;20407;-75
2022/04/20 04:40:59;;;;;;;5.15;2.83;;;;;;;;;;5019606;28;20025;-73
2022/04/20 04:43:26;;;;;;;5.03;2.67;;;;;;;;;;5018167;28;20042;-72
2022/04/20 04:48:38;;;;;;;4.57;3.13;;;;;;;;;;5020089;28;20087;-74
2022/04/20 04:51:04;;;;;;;4.75;2.80;;;;;;;;;;5019822;28;20549;-74
2022/04/20 04:53:31;;;;;;;6.47;3.10;;;;;;;;;;5018672;28;20032;-74
2022/04/20 04:55:57;;;;;;;3.75;3.15;;;;;;;;;;5019153;28;20037;-74
2022/04/20 04:58:23;;;;;;;3.65;3.05;;;;;;;;;;5018320;28;20421;-74
2022/04/20 05:00:49;;;;;;;4.53;3.03;;;;;;;;;;5018939;28;20087;-74
2022/04/20 05:03:16;;;;;;;3.67;2.92;;;;;;;;;;5017863;28;20108;-74
2022/04/20 05:05:45;;;;;;;3.50;2.63;;;;;;;;;;5019601;28;20393;-73
2022/04/20 05:08:12;;;;;;;4.80;2.70;;;;;;;;;;5017182;28;20034;-74
2022/04/20 05:10:38;;;;;;;5.22;3.03;;;;;;;;;;5024671;28;20095;-75
2022/04/20 05:13:05;;;;;;;4.60;3.30;;;;;;;;;;5019538;28;20084;-75
2022/04/20 05:15:31;;;;;;;4.18;2.80;;;;;;;;;;5019958;28;20879;-75
2022/04/20 05:17:57;;;;;;;4.28;2.90;;;;;;;;;;5017968;28;20025;-75
2022/04/20 05:20:24;;;;;;;6.68;3.03;;;;;;;;;;5019630;28;20751;-75
2022/04/20 05:22:50;;;;;;;6.00;2.80;;;;;;;;;;5020138;28;20029;-74
2022/04/20 05:25:17;;;;;;;4.30;3.13;;;;;;;;;;5012909;28;20489;-74
2022/04/20 05:27:43;;;;;;;7.53;3.85;;;;;;;;;;5015294;28;20029;-74
2022/04/20 05:30:11;;;;;;;10.57;4.97;;;;;;;;;;5017744;28;20505;-74
2022/04/20 05:32:37;;;;;;;9.70;5.05;;;;;;;;;;5019245;28;20079;-76
2022/04/20 05:35:04;;;;;;;7.20;4.68;;;;;;;;;;5018970;28;20163;-74
2022/04/20 05:42:59;;;;;;;9.50;5.28;;;;;;;;;;5001826;28;20041;-74
2022/04/20 05:45:26;;;;;;;7.97;4.82;;;;;;;;;;4997991;28;20029;-75
2022/04/20 05:47:52;;;;;;;8.95;5.05;;;;;;;;;;4999653;28;20061;-74
2022/04/20 05:50:19;;;;;;;11.05;5.18;;;;;;;;;;5001843;28;20034;-74
2022/04/20 05:52:45;;;;;;;8.60;6.30;;;;;;;;;;5001799;28;20033;-75
2022/04/20 05:55:11;;;;;;;8.98;4.93;;;;;;;;;;5019184;28;20029;-74
2022/04/20 05:57:37;;;;;;;8.38;4.57;;;;;;;;;;5007259;28;20510;-72
2022/04/20 06:00:04;;;;;;;9.48;6.50;;;;;;;;;;5011187;28;20612;-73
2022/04/20 06:02:33;;;;;;;13.73;8.13;;;;;;;;;;5009449;28;20029;-74
2022/04/20 06:05:00;;;;;;;12.73;8.15;;;;;;;;;;5004423;28;20662;-74
2022/04/20 06:07:26;;;;;;;92.03;15.80;;;;;;;;;;5010248;28;20026;-74
2022/04/20 06:09:52;;;;;;;15.70;6.80;;;;;;;;;;5018405;28;20037;-74
2022/04/20 06:12:20;;;;;;;7.60;5.97;;;;;;;;;;5022389;28;20135;-74
2022/04/20 06:14:49;;;;;;;9.55;5.97;;;;;;;;;;5023982;28;20021;-74
2022/04/20 06:17:15;;;;;;;7.82;5.53;;;;;;;;;;5022570;28;20057;-74
2022/04/20 06:19:41;;;;;;;10.88;6.38;;;;;;;;;;5023052;28;20033;-74
2022/04/20 06:22:08;;;;;;;8.48;6.13;;;;;;;;;;5022514;28;20021;-73
2022/04/20 06:24:34;;;;;;;10.27;6.00;;;;;;;;;;5023458;28;20041;-74
2022/04/20 06:27:01;;;;;;;10.77;6.32;;;;;;;;;;5023284;28;20025;-74
2022/04/20 06:29:27;;;;;;;8.82;3.90;;;;;;;;;;5023137;28;20061;-73
2022/04/20 06:31:53;;;;;;;9.55;3.92;;;;;;;;;;5023089;28;20029;-74
2022/04/20 06:34:20;;;;;;;14.00;4.53;;;;;;;;;;5018486;28;20692;-75
2022/04/20 06:36:46;;;;;;;6.15;3.38;;;;;;;;;;5015706;28;20041;-74
2022/04/20 06:39:12;;;;;;;5.35;3.83;;;;;;;;;;5012223;28;20044;-74
2022/04/20 06:41:38;;;;;;;10.00;4.65;;;;;;;;;;5015994;28;20064;-73
2022/04/20 06:44:05;;;;;;;9.40;4.35;;;;;;;;;;5018329;28;20034;-75
2022/04/20 06:46:31;;;;;;;10.13;3.88;;;;;;;;;;5015381;28;20096;-72
2022/04/20 06:48:57;;;;;;;4.82;3.40;;;;;;;;;;5002424;28;20030;-74
2022/04/20 06:51:23;;;;;;;7.30;3.40;;;;;;;;;;5018348;28;20429;-73
2022/04/20 06:59:20;;;;;;;8.02;3.70;;;;;;;;;;5003911;28;20092;-73
2022/04/20 07:01:46;;;;;;;5.90;3.10;;;;;;;;;;5010411;28;20055;-74
2022/04/20 07:04:13;;;;;;;5.97;3.65;;;;;;;;;;5005765;28;20041;-74
2022/04/20 07:06:39;;;;;;;8.23;2.97;;;;;;;;;;5023595;28;20036;-74
2022/04/20 07:09:05;;;;;;;5.30;3.10;;;;;;;;;;5023995;28;20802;-74
2022/04/20 07:11:31;;;;;;;7.38;3.50;;;;;;;;;;5022858;28;20079;-74
2022/04/20 07:13:57;;;;;;;7.88;2.70;;;;;;;;;;5023886;28;20060;-73
2022/04/20 07:16:24;;;;;;;3.70;2.60;;;;;;;;;;5023572;28;20057;-73
2022/04/20 07:18:50;;;;;;;7.28;2.90;;;;;;;;;;5022431;28;20029;-73
2022/04/20 07:21:16;;;;;;;5.43;3.50;;;;;;;;;;5023460;28;20021;-74
2022/04/20 07:23:43;;;;;;;8.15;3.63;;;;;;;;;;5023820;28;20033;-73
2022/04/20 07:26:09;;;;;;;6.45;3.97;;;;;;;;;;5023652;28;20083;-74
2022/04/20 07:28:35;;;;;;;5.00;3.15;;;;;;;;;;5021725;28;20032;-74
2022/04/20 07:31:02;;;;;;;8.80;2.80;;;;;;;;;;5023652;28;20057;-73
2022/04/20 07:33:29;;;;;;;5.15;2.30;;;;;;;;;;5023383;28;20026;-73
2022/04/20 07:35:55;;;;;;;4.60;2.30;;;;;;;;;;5023338;28;20032;-73
2022/04/20 07:38:24;;;;;;;5.18;2.30;;;;;;;;;;5022068;28;20022;-73
2022/04/20 07:40:50;;;;;;;6.35;2.88;;;;;;;;;;5023437;28;20034;-74
2022/04/20 07:43:16;;;;;;;6.53;3.65;;;;;;;;;;5023245;28;20572;-73
2022/04/20 07:45:42;;;;;;;6.88;4.25;;;;;;;;;;5022861;28;20033;-73
2022/04/20 07:48:09;;;;;;;6.90;3.58;;;;;;;;;;5023340;28;20029;-73
2022/04/20 07:50:36;;;;;;;8.50;3.65;;;;;;;;;;5023499;28;20485;-71
2022/04/20 07:53:04;;;;;;;8.02;4.47;;;;;;;;;;5021836;28;20033;-71
2022/04/20 07:55:32;;;;;;;9.55;4.43;;;;;;;;;;5019525;28;20060;-72
2022/04/20 07:57:59;;;;;;;6.28;4.25;;;;;;;;;;5021870;28;20025;-71
2022/04/20 08:00:26;;;;;;;11.98;4.68;;;;;;;;;;5021288;28;20021;-70
2022/04/20 08:03:07;;;;;;;9.63;4.95;;;;;;;;;;5022857;28;20021;-70
2022/04/20 08:05:33;;;;;;;6.70;4.60;;;;;;;;;;5023104;28;20045;-70
2022/04/20 08:07:59;;;;;;;9.07;5.03;;;;;;;;;;5023005;28;20243;-70
2022/04/20 08:10:25;;;;;;;8.20;5.00;;;;;;;;;;5022835;28;20040;-70
2022/04/20 08:12:52;;;;;;;9.90;4.88;;;;;;;;;;5021000;28;20029;-70
2022/04/20 08:15:18;;;;;;;13.10;4.80;;;;;;;;;;5022947;28;20049;-70
2022/04/20 08:17:45;;;;;;;6.90;4.10;;;;;;;;;;5022638;28;20026;-70
2022/04/20 08:20:11;;;;;;;8.35;4.32;;;;;;;;;;5022902;28;20029;-70
2022/04/20 08:22:41;;;;;;;9.45;4.00;;;;;;;;;;5021102;28;20026;-70
2022/04/20 08:25:08;;;;;;;10.55;4.97;;;;;;;;;;5022858;28;20034;-70
2022/04/20 08:27:34;;;;;;;8.85;5.60;;;;;;;;;;5022506;28;20528;-70
2022/04/20 08:30:00;;;;;;;11.43;6.50;;;;;;;;;;5022146;28;20029;-70
2022/04/20 08:32:26;;;;;;;7.35;5.00;;;;;;;;;;5022396;28;20024;-71
2022/04/20 08:34:52;;;;;;;6.10;3.65;;;;;;;;;;5020837;28;20029;-71
2022/04/20 08:37:19;;;;;;;9.27;5.93;;;;;;;;;;5022036;28;20083;-71
2022/04/20 08:39:45;;;;;;;11.13;5.85;;;;;;;;;;5022457;28;20022;-72
2022/04/20 08:42:12;;;;;;;9.43;3.75;;;;;;;;;;5022357;28;20022;-72
2022/04/20 08:44:42;;;;;;;5.22;3.47;;;;;;;;;;5020600;28;20413;-73
2022/04/20 08:47:12;;;;;;;8.73;3.22;;;;;;;;;;5022843;28;20516;-72
2022/04/20 08:49:42;;;;;;;8.02;2.63;;;;;;;;;;5022002;28;20117;-72
2022/04/20 08:54:56;;;;;;;9.15;4.45;;;;;;;;;;5020668;28;20504;-73
2022/04/20 08:57:24;;;;;;;7.43;4.63;;;;;;;;;;5021924;28;20021;-72
2022/04/20 08:59:51;;;;;;;6.22;4.05;;;;;;;;;;5022150;28;20025;-73
2022/04/20 09:02:20;;;;;;;10.13;4.97;;;;;;;;;;5022685;28;20033;-72
2022/04/20 09:04:47;;;;;;;8.07;3.65;;;;;;;;;;5021790;28;20033;-72
2022/04/20 09:07:15;;;;;;;7.72;2.75;;;;;;;;;;5022394;28;20248;-73
2022/04/20 09:09:41;;;;;;;5.85;3.03;;;;;;;;;;5018754;28;20101;-74
2022/04/20 09:12:11;;;;;;;8.43;4.70;;;;;;;;;;5019690;28;20017;-75
2022/04/20 09:14:38;;;;;;;7.20;4.10;;;;;;;;;;5020018;28;20029;-75
2022/04/20 09:17:05;;;;;;;9.35;3.17;;;;;;;;;;5020986;28;20077;-76
2022/04/20 09:19:31;;;;;;;9.45;3.10;;;;;;;;;;5021639;28;20025;-76
2022/04/20 09:21:57;;;;;;;8.45;3.47;;;;;;;;;;5020337;28;20096;-75
2022/04/20 09:24:24;;;;;;;9.45;4.00;;;;;;;;;;5013120;28;20033;-76
2022/04/20 09:26:54;;;;;;;8.18;3.60;;;;;;;;;;5014233;28;20100;-75
2022/04/20 09:29:21;;;;;;;5.95;3.40;;;;;;;;;;5023669;28;20083;-76
2022/04/20 09:31:54;;;;;;;12.25;3.90;;;;;;;;;;5013778;28;20028;-77
2022/04/20 09:34:53;;;;;;;9.13;3.58;;;;;;;;;;5005081;28;20104;-77
2022/04/20 09:37:21;;;;;;;10.15;3.10;;;;;;;;;;5014065;28;20109;-78
2022/04/20 09:39:48;;;;;;;12.65;3.83;;;;;;;;;;5024946;28;20022;-74
2022/04/20 09:42:15;;;;;;;5.75;3.20;;;;;;;;;;5023313;28;20087;-74
2022/04/20 09:45:02;;;;;;;28.30;5.07;;;;;;;;;;5025342;28;20123;-73
2022/04/20 09:50:19;;;;;;;10.07;3.70;;;;;;;;;;5017148;28;20686;-75
2022/04/20 09:52:48;;;;;;;9.13;3.95;;;;;;;;;;5005892;28;20386;-78
2022/04/20 09:55:18;;;;;;;8.60;3.70;;;;;;;;;;5011636;28;20104;-74
2022/04/20 09:57:44;;;;;;;10.45;4.28;;;;;;;;;;5016344;28;20021;-76
2022/04/20 10:00:15;;;;;;;5.90;3.50;;;;;;;;;;5021563;28;20030;-76
2022/04/20 10:02:44;;;;;;;6.95;3.78;;;;;;;;;;5005573;28;20489;-77
2022/04/20 10:05:10;;;;;;;7.53;3.45;;;;;;;;;;5011827;28;20041;-78
2022/04/20 10:07:37;;;;;;;6.80;3.20;;;;;;;;;;5017170;28;20071;-78
2022/04/20 10:10:04;;;;;;;6.50;2.78;;;;;;;;;;5019220;28;20112;-78
2022/04/20 10:12:31;;;;;;;7.28;3.97;;;;;;;;;;5006296;28;20619;-78
2022/04/20 10:17:47;;;;;;;5.25;3.30;;;;;;;;;;5011994;28;20087;-80
2022/04/20 10:20:14;;;;;;;10.40;3.00;;;;;;;;;;5012447;28;20110;-75
2022/04/20 10:22:42;;;;;;;5.90;3.28;;;;;;;;;;5005400;28;20033;-84
2022/04/20 10:25:09;;;;;;;7.47;3.17;;;;;;;;;;5009962;28;20912;-75
2022/04/20 10:27:39;;;;;;;9.20;3.10;;;;;;;;;;5023950;28;20083;-77
2022/04/20 10:30:10;;;;;;;6.13;3.10;;;;;;;;;;5013626;28;20053;-77
2022/04/20 10:32:51;;;;;;;3.88;3.38;;;;;;;;;;5015784;28;20025;-76
2022/04/20 10:35:17;;;;;;;5.90;3.10;;;;;;;;;;5006222;28;20060;-77
2022/04/20 10:38:03;;;;;;;6.50;3.33;;;;;;;;;;5006917;28;20030;-80
2022/04/20 10:40:29;;;;;;;7.68;3.55;;;;;;;;;;5019597;28;20029;-80
2022/04/20 10:43:28;;;;;;;8.43;3.63;;;;;;;;;;5015016;28;20033;-79
2022/04/20 10:46:07;;;;;;;7.95;3.03;;;;;;;;;;4989444;28;20056;-79
2022/04/20 10:48:49;;;;;;;11.95;3.38;;;;;;;;;;5008020;28;20552;-79
2022/04/20 10:51:16;;;;;;;7.75;3.47;;;;;;;;;;5012269;28;20496;-80
2022/04/20 10:53:47;;;;;;;7.45;3.50;;;;;;;;;;5010630;28;20022;-78
2022/04/20 10:56:14;;;;;;;9.95;4.18;;;;;;;;;;5021267;28;20025;-77
2022/04/20 10:58:54;;;;;;;5.55;2.92;;;;;;;;;;5015091;28;20658;-82
2022/04/20 11:01:20;;;;;;;7.07;2.80;;;;;;;;;;5015760;28;20094;-79
2022/04/20 11:03:58;;;;;;;9.65;3.53;;;;;;;;;;5019420;28;20033;-78
2022/04/20 11:06:28;;;;;;;5.72;3.53;;;;;;;;;;5021093;28;20040;-78
2022/04/20 11:09:00;;;;;;;8.20;3.45;;;;;;;;;;5004988;28;20025;-79
2022/04/20 11:20:07;;;;;;;8.45;3.55;;;;;;;;;;5020439;28;20064;-78
2022/04/20 11:22:44;;;;;;;8.50;3.38;;;;;;;;;;5019244;28;20033;-78
2022/04/20 11:25:11;;;;;;;7.90;3.83;;;;;;;;;;5010152;28;20037;-80
2022/04/20 11:27:38;;;;;;;6.97;3.72;;;;;;;;;;5002090;28;20025;-78
2022/04/20 11:30:04;;;;;;;7.30;4.05;;;;;;;;;;5012021;28;20022;-78
2022/04/20 11:32:31;;;;;;;6.25;4.22;;;;;;;;;;4999424;28;20315;-77
2022/04/20 11:35:07;;;;;;;7.07;4.00;;;;;;;;;;5013798;28;20432;-81
2022/04/20 11:37:37;;;;;;;6.20;3.85;;;;;;;;;;5021583;28;20037;-79
2022/04/20 11:40:13;;;;;;;7.72;3.08;;;;;;;;;;5014644;28;20029;-77
2022/04/20 11:42:43;;;;;;;6.10;3.15;;;;;;;;;;5016816;28;20418;-77
2022/04/20 11:45:10;;;;;;;6.97;3.55;;;;;;;;;;5018767;28;20041;-78
2022/04/20 11:47:42;;;;;;;5.63;3.53;;;;;;;;;;5019195;28;20025;-84
2022/04/20 11:50:08;;;;;;;9.05;3.85;;;;;;;;;;5005457;28;20030;-81
2022/04/20 11:52:35;;;;;;;5.10;3.30;;;;;;;;;;5020421;28;20030;-77
2022/04/20 11:55:06;;;;;;;7.03;3.78;;;;;;;;;;5018805;28;20056;-79
2022/04/20 11:57:32;;;;;;;8.10;3.10;;;;;;;;;;5020338;28;20036;-82
2022/04/20 12:00:00;;;;;;;6.05;3.00;;;;;;;;;;5019384;28;20774;-77
2022/04/20 12:02:26;;;;;;;6.30;3.17;;;;;;;;;;5003244;28;20220;-78
2022/04/20 12:05:04;;;;;;;8.00;3.20;;;;;;;;;;5003656;28;20096;-83
2022/04/20 12:07:32;;;;;;;7.15;3.70;;;;;;;;;;5020252;28;20493;-78
2022/04/20 12:09:58;;;;;;;18.70;4.22;;;;;;;;;;5021178;28;20112;-77
2022/04/20 12:12:25;;;;;;;7.15;3.05;;;;;;;;;;5020924;28;20021;-82
2022/04/20 12:14:51;;;;;;;6.55;3.35;;;;;;;;;;5019802;28;20163;-79
2022/04/20 12:17:20;;;;;;;6.07;3.53;;;;;;;;;;5019805;28;20045;-81
2022/04/20 12:19:46;;;;;;;6.05;2.83;;;;;;;;;;5016949;28;20026;-81
2022/04/20 12:22:17;;;;;;;6.20;3.47;;;;;;;;;;5020020;28;20017;-82
2022/04/20 12:24:43;;;;;;;4.37;2.83;;;;;;;;;;5019755;28;20037;-82
2022/04/20 12:27:20;;;;;;;11.77;4.03;;;;;;;;;;5020265;28;20295;-82
2022/04/20 12:29:53;;;;;;;7.88;3.75;;;;;;;;;;5020625;28;20057;-81
2022/04/20 12:32:26;;;;;;;5.43;3.22;;;;;;;;;;5018739;28;20036;-82
2022/04/20 12:34:54;;;;;;;13.00;3.17;;;;;;;;;;5019431;28;20484;-81
2022/04/20 12:37:29;;;;;;;4.07;3.35;;;;;;;;;;5019858;28;20252;-82
2022/04/20 12:39:55;;;;;;;6.85;3.50;;;;;;;;;;5018148;28;20117;-82
2022/04/20 12:42:21;;;;;;;6.10;3.60;;;;;;;;;;5018310;28;20037;-83
2022/04/20 12:44:51;;;;;;;7.13;3.40;;;;;;;;;;5017867;28;20433;-82
2022/04/20 12:47:21;;;;;;;7.88;3.00;;;;;;;;;;5018967;28;20022;-81
2022/04/20 12:49:53;;;;;;;4.35;3.10;;;;;;;;;;5017935;28;20511;-82
2022/04/20 12:52:27;;;;;;;4.22;3.00;;;;;;;;;;5019644;28;20036;-81
2022/04/20 12:55:00;;;;;;;5.45;3.20;;;;;;;;;;5019211;28;20034;-81
2022/04/20 13:03:05;;;;;;;10.85;3.47;;;;;;;;;;5019745;28;20056;-82
2022/04/20 13:05:32;;;;;;;7.07;3.35;;;;;;;;;;5019502;28;20037;-82
2022/04/20 13:07:59;;;;;;;9.02;3.65;;;;;;;;;;5019514;28;20025;-82
2022/04/20 13:10:25;;;;;;;6.78;3.80;;;;;;;;;;5019520;28;20030;-82
2022/04/20 13:12:52;;;;;;;6.90;3.28;;;;;;;;;;5018315;28;20029;-82
2022/04/20 13:15:18;;;;;;;5.75;3.30;;;;;;;;;;5018746;28;20045;-81
2022/04/20 13:17:45;;;;;;;5.25;3.47;;;;;;;;;;5019399;28;20079;-81
2022/04/20 13:20:11;;;;;;;7.13;3.58;;;;;;;;;;5019546;28;20480;-82
2022/04/20 13:22:38;;;;;;;5.55;3.42;;;;;;;;;;5019521;28;20026;-81
2022/04/20 13:27:55;;;;;;;6.88;3.65;;;;;;;;;;5017133;28;20040;-81
2022/04/20 13:30:29;;;;;;;5.70;3.72;;;;;;;;;;5018967;28;20025;-81
2022/04/20 13:32:56;;;;;;;4.00;3.13;;;;;;;;;;5017442;28;20424;-81
2022/04/20 13:35:23;;;;;;;5.30;3.30;;;;;;;;;;5018626;28;20037;-82
2022/04/20 13:37:49;;;;;;;7.07;3.47;;;;;;;;;;5018063;28;20030;-81
2022/04/20 13:40:16;;;;;;;4.38;2.85;;;;;;;;;;5018503;28;20034;-82
2022/04/20 13:42:42;;;;;;;6.88;3.40;;;;;;;;;;5019443;28;20417;-81
2022/04/20 13:45:08;;;;;;;7.47;3.70;;;;;;;;;;5018467;28;20029;-81
2022/04/20 13:47:35;;;;;;;4.85;3.20;;;;;;;;;;5018988;28;20079;-81
2022/04/20 13:50:02;;;;;;;6.97;3.35;;;;;;;;;;5018897;28;20288;-81
2022/04/20 13:52:30;;;;;;;5.43;3.83;;;;;;;;;;5017960;28;20026;-81
2022/04/20 13:54:57;;;;;;;10.18;3.75;;;;;;;;;;5016706;28;20548;-82
2022/04/20 13:57:24;;;;;;;6.82;3.85;;;;;;;;;;5016228;28;20503;-81
2022/04/20 13:59:51;;;;;;;9.38;3.63;;;;;;;;;;5018044;28;20484;-82
2022/04/20 14:02:19;;;;;;;6.63;3.35;;;;;;;;;;5019272;28;20395;-81
2022/04/20 14:04:45;;;;;;;7.32;3.75;;;;;;;;;;5017669;28;20064;-81
2022/04/20 14:07:11;;;;;;;9.07;3.30;;;;;;;;;;5018284;28;20021;-81
2022/04/20 14:09:38;;;;;;;10.98;3.53;;;;;;;;;;5018220;28;20083;-82
2022/04/20 14:12:04;;;;;;;6.25;3.65;;;;;;;;;;5020912;28;20040;-82
2022/04/20 14:14:47;;;;;;;8.80;4.00;;;;;;;;;;5021626;28;20017;-80
2022/04/20 14:17:18;;;;;;;9.52;3.80;;;;;;;;;;5020170;28;20068;-81
2022/04/20 14:19:48;;;;;;;7.57;3.83;;;;;;;;;;5022018;28;20029;-82
2022/04/20 14:22:15;;;;;;;8.38;4.82;;;;;;;;;;5022515;28;20018;-81
2022/04/20 14:24:49;;;;;;;9.60;3.67;;;;;;;;;;5021580;28;20532;-81
2022/04/20 14:35:50;;;;;;;12.30;7.10;;;;;;;;;;5019485;28;20658;-81
2022/04/20 14:38:41;;;;;;;21.60;10.35;;;;;;;;;;5022661;28;20041;-81
2022/04/20 14:41:07;;;;;;;17.38;6.95;;;;;;;;;;5020786;28;20053;-82
2022/04/20 14:43:33;;;;;;;14.23;7.25;;;;;;;;;;5019878;28;20669;-81
2022/04/20 14:46:00;;;;;;;15.38;6.68;;;;;;;;;;5019329;28;20037;-84
2022/04/20 14:48:26;;;;;;;14.32;6.60;;;;;;;;;;5017865;28;20029;-81
2022/04/20 14:50:53;;;;;;;10.50;6.50;;;;;;;;;;5020441;28;20029;-81
2022/04/20 14:53:26;;;;;;;9.30;5.20;;;;;;;;;;5019943;28;20099;-81
2022/04/20 14:55:53;;;;;;;8.77;4.80;;;;;;;;;;5021792;28;20405;-82
2022/04/20 14:58:19;;;;;;;9.70;4.70;;;;;;;;;;5019719;28;20174;-81
2022/04/20 15:00:45;;;;;;;14.18;4.15;;;;;;;;;;5018194;28;20452;-81
2022/04/20 15:03:12;;;;;;;8.50;3.90;;;;;;;;;;5020945;28;20128;-82
2022/04/20 15:05:38;;;;;;;5.78;4.00;;;;;;;;;;5020023;28;20042;-82
2022/04/20 15:08:05;;;;;;;7.07;3.83;;;;;;;;;;5019790;28;20021;-81
2022/04/20 15:10:34;;;;;;;9.98;4.85;;;;;;;;;;5020694;28;20028;-81
2022/04/20 15:13:01;;;;;;;7.40;3.83;;;;;;;;;;5019315;28;20037;-82
2022/04/20 15:15:27;;;;;;;8.20;4.63;;;;;;;;;;5020072;28;20064;-81
2022/04/20 15:17:54;;;;;;;8.75;5.53;;;;;;;;;;5021095;28;20116;-81
2022/04/20 15:20:24;;;;;;;11.02;5.75;;;;;;;;;;5019520;28;20128;-81
2022/04/20 15:23:08;;;;;;;11.88;5.60;;;;;;;;;;5019960;28;20481;-81
2022/04/20 15:25:40;;;;;;;9.70;5.28;;;;;;;;;;5019538;28;20042;-82
2022/04/20 15:28:07;;;;;;;11.18;5.40;;;;;;;;;;5021066;28;20181;-81
2022/04/20 15:30:36;;;;;;;8.45;5.82;;;;;;;;;;5020328;28;20051;-81
2022/04/20 15:33:37;;;;;;;7.72;5.03;;;;;;;;;;5018559;28;20117;-81
2022/04/20 15:36:26;;;;;;;5.57;4.40;;;;;;;;;;5017705;28;20104;-81
2022/04/20 15:39:00;;;;;;;7.18;5.07;;;;;;;;;;5020182;28;20037;-82